• Join FlightAware (Why Join?)
  • Login
  • US Flag 
05:26PM EDT


 

Airport Tracker/Info


-or-


 

Live Flight TrackerFlight Track Log ✈ SWA655 ✈ 07-Feb-2014 ✈ KELP - KSAT

Flight Track Log - Related Links

Times and Time Zones

All times are in EST time to prevent confusion due to time zone crossing. See the SWA655 flight status page for this flight to view local times or setup timezone preferences in your user account.

Time Position Orientation Groundspeed Altitude Reporting Facility
EST Latitude Longitude Course Direction KTS MPH feet Rate Location/Type
12:08PM 31.8022 -106.3903 47° Northeast 150 173 4,600  Level Albuquerque Center
12:09PM 31.8247 -106.3622 47° Northeast 214 246 6,900 1,440 Climbing Albuquerque Center
12:10PM 31.8144 -106.3489 132° Southeast 212 244 7,100 2,160 Climbing Albuquerque Center
12:11PM 31.7658 -106.2778 129° Southeast 277 319 10,000 3,180 Climbing Albuquerque Center
12:12PM 31.6947 -106.1742 129° Southeast 343 395 13,700 3,360 Climbing Albuquerque Center
12:13PM 31.6297 -106.0783 129° Southeast 372 428 17,000 3,000 Climbing Albuquerque Center
12:14PM 31.5611 -105.9775 129° Southeast 392 451 20,000 2,640 Climbing Albuquerque Center
12:15PM 31.4900 -105.8722 128° Southeast 411 473 22,500 2,460 Climbing Albuquerque Center
12:16PM 31.4167 -105.7631 128° Southeast 426 490 25,100 2,100 Climbing Albuquerque Center
12:17PM 31.3797 -105.6231 107° East 451 519 26,900 1,980 Climbing Albuquerque Center
12:18PM 31.3442 -105.4433 103° East 469 540 29,300 1,740 Climbing Albuquerque Center
12:19PM 31.3133 -105.2894 103° East 479 551 30,600 1,500 Climbing Albuquerque Center
12:20PM 31.2808 -105.1286 103° East 497 572 32,400 1,980 Climbing Albuquerque Center
12:21PM 31.2475 -104.9700 104° East 499 574 34,800 1,740 Climbing Albuquerque Center
12:22PM 31.2164 -104.8150 103° East 490 564 36,100 900 Climbing Albuquerque Center
12:23PM 31.1839 -104.6558 103° East 496 571 36,700 420 Climbing Albuquerque Center
12:24PM 31.1483 -104.4911 104° East 513 590 37,000 120 Climbing Albuquerque Center
12:25PM 31.1136 -104.3217 103° East 530 610 37,000  Level Albuquerque Center
12:26PM 31.0700 -104.1164 104° East 541 623 37,000  Level Albuquerque Center
12:27PM 31.0325 -103.9483 105° East 539 620 37,000  Level Albuquerque Center
12:28PM 30.9944 -103.7761 104° East 540 621 37,000  Level Albuquerque Center
12:29PM 30.9600 -103.6136 104° East 530 610 37,000  Level Albuquerque Center
12:30PM 30.9253 -103.4497 104° East 526 605 37,000  Level Albuquerque Center
12:31PM 30.8894 -103.2839 104° East 527 606 37,000  Level Albuquerque Center
12:32PM 30.8456 -103.0850 104° East 530 610 37,000  Level Albuquerque Center
12:33PM 30.8083 -102.9200 105° East 532 612 37,000  Level Albuquerque Center
12:35PM 30.7714 -102.7558 105° East 531 611 37,000  Level Albuquerque Center
12:35PM 30.7358 -102.5906 104° East 529 609 37,000  Level Houston Center
12:37PM 30.6989 -102.4258 105° East 532 612 37,000  Level Houston Center
12:38PM 30.6608 -102.2608 105° East 533 613 37,000  Level Houston Center
12:39PM 30.6225 -102.0961 105° East 535 616 37,000  Level Houston Center
12:40PM 30.5761 -101.8964 105° East 537 618 37,000 -60 Level Houston Center
12:41PM 30.5372 -101.7303 105° East 537 618 36,900  Descending Houston Center
12:42PM 30.5008 -101.5703 105° East 538 619 37,000  Climbing Houston Center
12:43PM 30.4600 -101.3986 105° East 536 617 37,000  Level Houston Center
12:44PM 30.4142 -101.2067 105° East 533 613 37,000  Level Houston Center
12:45PM 30.3744 -101.0444 106° East 527 606 37,000  Level Houston Center
12:46PM 30.3361 -100.8811 105° East 527 606 37,000 -540 Level Houston Center
12:47PM 30.2972 -100.7189 105° East 524 603 35,900 -2,040 Descending Houston Center
12:48PM 30.2572 -100.5572 106° East 523 602 32,900 -2,700 Descending Houston Center
12:49PM 30.2189 -100.3950 105° East 522 601 30,400 -2,280 Descending Houston Center
12:50PM 30.1792 -100.2350 106° East 514 592 28,100 -2,160 Descending Houston Center
12:51PM 30.1408 -100.0800 106° East 496 571 25,900 -1,560 Descending Houston Center
12:52PM 30.0972 -99.9047 106° East 474 545 25,000 -1,860 Descending Houston Center
12:53PM 30.0600 -99.7567 106° East 477 549 22,100 -2,640 Descending Houston Center
12:54PM 30.0228 -99.6103 106° East 476 548 19,600 -2,220 Descending Houston Center
12:55PM 29.9875 -99.4703 106° East 458 527 17,600 -2,220 Descending Houston Center
12:56PM 29.9542 -99.3383 106° East 435 501 15,000 -2,700 Descending Houston Center
12:56PM 29.9461 -99.3094 108° East 432 497 14,600 -2,820 Descending Houston Center
12:57PM 29.9333 -99.2578 106° East 426 490 13,600 -2,220 Descending Houston Center
12:57PM 29.9219 -99.2089 105° East 422 486 12,600 -2,460 Descending Houston Center
12:58PM 29.8858 -99.1211 115° Southeast 395 455 10,900 -2,100 Descending Houston Center
12:58PM 29.8678 -99.0664 111° Southeast 392 451 10,400 -840 Descending Houston Center
12:59PM 29.8469 -99.0125 114° Southeast 356 410 10,100 -840 Descending Houston Center
12:59PM 29.8303 -98.9653 112° Southeast 344 396 9,600 -1,260 Descending Houston Center
01:00PM 29.8111 -98.9156 114° Southeast 318 366 8,800 -1,560 Descending Houston Center
01:00PM 29.7950 -98.8647 110° East 316 364 8,000 -1,500 Descending Houston Center
01:01PM 29.7747 -98.8139 115° Southeast 296 341 7,200 -900 Descending Houston Center
01:01PM 29.7636 -98.7808 111° Southeast 288 331 7,100 -480 Descending Houston Center
01:02PM 29.7389 -98.7411 126° Southeast 223 257 6,700 -780 Descending Houston Center
01:02PM 29.7278 -98.7239 127° Southeast 218 251 6,300 -780 Descending Houston Center
01:03PM 29.7103 -98.7036 135° Southeast 165 190 6,100 -720 Descending Houston Center
01:03PM 29.6958 -98.6822 128° Southeast 163 188 5,600 -840 Descending Houston Center
01:04PM 29.6842 -98.6681 133° Southeast 127 146 5,300 -780 Descending Houston Center
01:05PM 29.6703 -98.6497 131° Southeast 140 161 4,800 -900 Descending Houston Center
01:05PM 29.6558 -98.6331 135° Southeast 150 173 4,400 -900 Descending Houston Center
01:06PM 29.6381 -98.6083 130° Southeast 155 178 3,900 -900 Descending Houston Center
01:06PM 29.6247 -98.5911 132° Southeast 165 190 3,400 -900 Descending Houston Center
01:07PM 29.6089 -98.5703 131° Southeast 159 183 3,000 -840 Descending Houston Center
01:07PM 29.5961 -98.5561 136° Southeast 152 175 2,600 -900 Descending Houston Center
01:08PM 29.5800 -98.5331 129° Southeast 149 171 2,100 -840 Descending Houston Center
01:08PM 29.5700 -98.5206 133° Southeast 138 159 1,800 -780 Descending Houston Center
01:09PM 29.5556 -98.5011 130° Southeast 137 158 1,300 -660 Descending Houston Center
01:10PM 29.5325 -98.4719 132° Southeast 134 154 800 -540 Descending Houston Center
01:12PM 29.5333 -98.4667 120° Southeast  Level FlightAware Approximate
01:19PM 29.5340 -98.4691 120° Southeast  Level Estimated